createdAt,value
2023-08-28T00:04:23.654Z,11.00
2023-08-28T00:09:26.806Z,11.00
2023-08-28T00:14:28.662Z,10.80
2023-08-28T00:19:30.508Z,10.80
2023-08-28T00:24:33.601Z,10.70
2023-08-28T00:29:35.333Z,10.50
2023-08-28T00:34:37.147Z,10.30
2023-08-28T00:39:40.227Z,10.20
2023-08-28T00:44:41.945Z,10.10
2023-08-28T00:49:44.407Z,10.20
2023-08-28T00:54:47.772Z,10.30
2023-08-28T00:59:49.580Z,10.40
2023-08-28T01:04:52.821Z,10.50
2023-08-28T01:10:04.851Z,10.50
2023-08-28T01:15:12.579Z,10.50
2023-08-28T01:20:16.278Z,10.30
2023-08-28T01:25:20.260Z,10.20
2023-08-28T01:30:22.061Z,10.00
2023-08-28T01:35:25.634Z,9.90
2023-08-28T01:40:35.057Z,9.80
2023-08-28T01:45:38.521Z,9.80
2023-08-28T01:50:40.233Z,10.00
2023-08-28T01:56:15.610Z,10.40
2023-08-28T02:01:18.950Z,10.70
2023-08-28T02:06:20.824Z,10.70
2023-08-28T02:11:22.618Z,10.50
2023-08-28T02:16:25.730Z,10.40
2023-08-28T02:21:27.525Z,10.20
2023-08-28T02:26:29.297Z,10.10
2023-08-28T02:31:32.433Z,10.20
2023-08-28T02:36:34.162Z,10.00
2023-08-28T02:41:38.622Z,9.90
2023-08-28T02:46:41.737Z,9.90
2023-08-28T02:51:43.551Z,10.00
2023-08-28T02:56:45.384Z,9.80
2023-08-28T03:01:48.525Z,9.80
2023-08-28T03:06:50.420Z,9.70
2023-08-28T03:11:52.183Z,9.70
2023-08-28T03:16:55.275Z,9.70
2023-08-28T03:21:57.133Z,9.70
2023-08-28T03:26:58.922Z,9.70
2023-08-28T03:32:02.103Z,9.80
2023-08-28T03:37:04.102Z,9.80
2023-08-28T03:42:06.345Z,9.90
2023-08-28T03:47:09.427Z,10.00
2023-08-28T03:52:11.164Z,10.10
2023-08-28T03:57:13.004Z,10.00
2023-08-28T04:02:16.148Z,9.80
2023-08-28T04:07:25.221Z,9.70
2023-08-28T04:12:28.163Z,9.70
2023-08-28T04:17:31.646Z,9.90
2023-08-28T04:22:33.478Z,9.80
2023-08-28T04:27:35.400Z,9.80
2023-08-28T04:32:38.496Z,9.80
2023-08-28T04:37:40.365Z,9.80
2023-08-28T04:42:44.124Z,9.70
2023-08-28T04:47:47.201Z,9.60
2023-08-28T04:52:48.991Z,9.60
2023-08-28T04:57:50.768Z,9.50
2023-08-28T05:02:53.901Z,9.70
2023-08-28T05:07:55.735Z,9.70
2023-08-28T05:12:57.447Z,9.70
2023-08-28T05:18:00.734Z,9.80
2023-08-28T05:23:02.957Z,9.70
2023-08-28T05:28:08.090Z,9.80
2023-08-28T05:33:11.267Z,9.90
2023-08-28T05:38:15.346Z,9.90
2023-08-28T05:43:17.016Z,10.00
2023-08-28T05:48:20.322Z,10.10
2023-08-28T05:53:22.089Z,10.20
2023-08-28T05:58:23.845Z,10.40
2023-08-28T06:03:27.111Z,10.50
2023-08-28T06:08:28.874Z,10.70
2023-08-28T06:13:30.706Z,10.80
2023-08-28T06:18:33.974Z,11.00
2023-08-28T06:23:35.735Z,11.20
2023-08-28T06:28:37.574Z,11.50
2023-08-28T06:33:40.674Z,11.70
2023-08-28T06:38:42.408Z,11.80
2023-08-28T06:43:44.287Z,11.90
2023-08-28T06:48:51.275Z,12.00
2023-08-28T06:53:53.122Z,12.00
2023-08-28T06:58:54.870Z,12.20
2023-08-28T07:03:58.059Z,12.30
2023-08-28T07:09:00.009Z,12.40
2023-08-28T07:14:09.338Z,12.50
2023-08-28T07:19:12.480Z,12.60
2023-08-28T07:24:14.246Z,12.60
2023-08-28T07:29:15.945Z,12.70
2023-08-28T07:34:19.018Z,12.80
2023-08-28T07:39:20.786Z,12.90
2023-08-28T07:44:22.479Z,13.00
2023-08-28T07:49:37.916Z,13.20
2023-08-28T07:54:50.998Z,13.40
2023-08-28T07:59:52.886Z,13.60
2023-08-28T08:04:56.057Z,13.90
2023-08-28T08:09:57.801Z,14.20
2023-08-28T08:14:59.619Z,14.40
2023-08-28T08:20:03.092Z,14.50
2023-08-28T08:25:06.576Z,14.70
2023-08-28T08:30:09.392Z,14.90
2023-08-28T08:35:14.285Z,15.10
2023-08-28T08:40:22.307Z,15.20
2023-08-28T08:45:28.063Z,15.30
2023-08-28T08:50:31.524Z,15.30
2023-08-28T08:55:46.731Z,15.50
2023-08-28T09:00:49.245Z,15.60
2023-08-28T09:05:53.398Z,15.80
2023-08-28T09:10:58.947Z,15.80
2023-08-28T09:16:00.852Z,16.00
2023-08-28T09:21:11.070Z,16.00
2023-08-28T09:26:13.714Z,16.20
2023-08-28T09:31:31.328Z,16.50
2023-08-28T09:36:35.850Z,16.50
2023-08-28T09:41:41.096Z,16.50
2023-08-28T09:46:43.087Z,16.50
2023-08-28T09:51:48.873Z,16.30
2023-08-28T09:56:50.803Z,16.60
2023-08-28T10:01:53.262Z,16.70
2023-08-28T10:06:58.054Z,16.70
2023-08-28T10:12:00.460Z,16.80
2023-08-28T10:17:05.561Z,16.80
2023-08-28T10:22:09.332Z,17.10
2023-08-28T10:27:12.702Z,17.60
2023-08-28T10:32:15.374Z,17.90
2023-08-28T10:37:27.935Z,17.70
2023-08-28T10:42:31.647Z,17.60
2023-08-28T10:47:33.479Z,17.50
2023-08-28T10:52:36.630Z,17.70
2023-08-28T10:57:38.473Z,18.00
2023-08-28T11:03:03.577Z,17.90
2023-08-28T11:08:07.476Z,18.10
2023-08-28T11:13:09.476Z,18.10
2023-08-28T11:18:23.514Z,18.00
2023-08-28T11:23:28.249Z,18.00
2023-08-28T11:28:42.069Z,17.70
2023-08-28T11:33:45.691Z,17.70
2023-08-28T11:38:49.880Z,17.80
2023-08-28T11:43:51.703Z,17.80
2023-08-28T11:48:53.583Z,17.80
2023-08-28T11:53:56.754Z,18.10
2023-08-28T11:58:59.686Z,18.30
2023-08-28T12:04:01.808Z,18.50
2023-08-28T12:09:05.302Z,18.40
2023-08-28T12:14:15.012Z,18.30
2023-08-28T12:19:20.950Z,18.30
2023-08-28T12:24:26.961Z,18.40
2023-08-28T12:29:28.853Z,18.70
2023-08-28T12:34:30.630Z,18.80
2023-08-28T12:39:35.040Z,18.90
2023-08-28T12:44:36.887Z,19.10
2023-08-28T12:49:38.933Z,19.30
2023-08-28T12:54:42.139Z,19.20
2023-08-28T12:59:43.955Z,19.20
2023-08-28T13:04:45.853Z,19.20
2023-08-28T13:09:49.205Z,19.20
2023-08-28T13:14:51.146Z,19.10
2023-08-28T13:19:52.904Z,19.00
2023-08-28T13:24:56.205Z,18.80
2023-08-28T13:29:59.493Z,18.70
2023-08-28T13:35:01.289Z,18.70
2023-08-28T13:40:05.232Z,18.50
2023-08-28T13:45:07.991Z,18.40
2023-08-28T13:50:10.371Z,18.40
2023-08-28T13:55:13.561Z,18.60
2023-08-28T14:00:17.193Z,18.60
2023-08-28T14:05:19.239Z,18.70
2023-08-28T14:10:22.629Z,18.60
2023-08-28T14:15:24.384Z,18.70
2023-08-28T14:20:26.156Z,18.60
2023-08-28T14:25:30.661Z,18.70
2023-08-28T14:30:32.436Z,18.50
2023-08-28T14:35:34.275Z,18.40
2023-08-28T14:40:46.254Z,18.30
2023-08-28T14:45:49.993Z,18.40
2023-08-28T14:50:53.764Z,18.30
2023-08-28T14:55:56.973Z,18.10
2023-08-28T15:00:59.345Z,17.90
2023-08-28T15:06:01.086Z,17.90
2023-08-28T15:11:04.229Z,17.90
2023-08-28T15:16:05.990Z,17.90
2023-08-28T15:21:07.769Z,17.90
2023-08-28T15:26:10.853Z,17.90
2023-08-28T15:31:12.701Z,17.70
2023-08-28T15:36:14.441Z,17.50
2023-08-28T15:41:17.805Z,17.50
2023-08-28T15:46:24.158Z,17.50
2023-08-28T15:51:28.921Z,17.40
2023-08-28T15:56:32.295Z,17.40
2023-08-28T16:01:34.195Z,17.40
2023-08-28T16:06:36.023Z,17.50
2023-08-28T16:11:48.106Z,17.40
2023-08-28T16:16:49.845Z,17.50
2023-08-28T16:21:51.881Z,17.50
2023-08-28T16:26:55.011Z,17.60
2023-08-28T16:31:59.276Z,17.40
2023-08-28T16:37:01.014Z,17.40
2023-08-28T16:42:04.719Z,17.50
2023-08-28T16:47:06.581Z,17.40
2023-08-28T16:52:08.363Z,17.40
2023-08-28T16:57:11.495Z,17.40
2023-08-28T17:02:13.294Z,17.10
2023-08-28T17:07:15.037Z,16.90
2023-08-28T17:12:18.214Z,16.70
2023-08-28T17:17:19.947Z,16.60
2023-08-28T17:22:21.665Z,16.50
2023-08-28T17:27:24.762Z,16.50
2023-08-28T17:32:26.999Z,16.30
2023-08-28T17:37:28.722Z,16.20
2023-08-28T17:42:31.882Z,16.20
2023-08-28T17:47:33.602Z,16.00
2023-08-28T17:52:35.383Z,16.00
2023-08-28T17:57:38.438Z,15.90
2023-08-28T18:02:57.687Z,15.90
2023-08-28T18:08:01.820Z,15.80
2023-08-28T18:13:05.266Z,15.60
2023-08-28T18:18:07.452Z,15.50
2023-08-28T18:23:09.185Z,15.50
2023-08-28T18:28:13.698Z,15.40
2023-08-28T18:33:15.626Z,15.30
2023-08-28T18:38:17.380Z,15.30
2023-08-28T18:43:20.585Z,15.20
2023-08-28T18:48:22.384Z,15.10
2023-08-28T18:53:24.170Z,15.00
2023-08-28T18:58:27.413Z,15.00
2023-08-28T19:03:29.244Z,14.90
2023-08-28T19:08:31.116Z,14.80
2023-08-28T19:13:34.381Z,14.70
2023-08-28T19:18:36.092Z,14.60
2023-08-28T19:23:37.814Z,14.50
2023-08-28T19:28:40.939Z,14.50
2023-08-28T19:33:42.768Z,14.40
2023-08-28T19:38:44.647Z,14.40
2023-08-28T19:43:47.792Z,14.30
2023-08-28T19:48:49.554Z,14.30
2023-08-28T19:53:51.268Z,14.30
2023-08-28T19:58:54.405Z,14.20
2023-08-28T20:03:56.151Z,14.10
2023-08-28T20:08:57.926Z,14.10
2023-08-28T20:14:01.041Z,14.10
2023-08-28T20:19:02.883Z,14.10
2023-08-28T20:24:05.221Z,14.00
2023-08-28T20:29:08.234Z,14.00
2023-08-28T20:34:09.966Z,13.90
2023-08-28T20:39:11.770Z,14.00
2023-08-28T20:44:15.896Z,13.90
2023-08-28T20:49:18.041Z,13.70
2023-08-28T20:54:19.840Z,13.70
2023-08-28T20:59:23.118Z,13.70
2023-08-28T21:04:24.885Z,13.70
2023-08-28T21:09:26.702Z,13.70
2023-08-28T21:14:29.796Z,13.80
2023-08-28T21:19:31.624Z,13.80
2023-08-28T21:24:33.343Z,13.70
2023-08-28T21:29:36.380Z,13.60
2023-08-28T21:34:38.290Z,13.50
2023-08-28T21:39:40.018Z,13.50
2023-08-28T21:44:44.068Z,13.40
2023-08-28T21:49:45.819Z,13.30
2023-08-28T21:54:47.527Z,13.40
2023-08-28T21:59:50.820Z,13.30
2023-08-28T22:04:52.707Z,13.40
2023-08-28T22:09:54.438Z,13.30
2023-08-28T22:14:59.888Z,13.20
2023-08-28T22:20:02.984Z,13.30
2023-08-28T22:25:05.437Z,13.20
2023-08-28T22:30:09.746Z,13.20
2023-08-28T22:35:11.872Z,13.20
2023-08-28T22:40:16.793Z,13.10
2023-08-28T22:45:20.762Z,13.00
2023-08-28T22:50:22.550Z,13.00
2023-08-28T22:55:24.323Z,12.90
2023-08-28T23:00:27.479Z,12.90
2023-08-28T23:05:29.389Z,12.90
2023-08-28T23:10:31.173Z,12.80
2023-08-28T23:15:35.903Z,12.70
2023-08-28T23:20:37.834Z,12.60
2023-08-28T23:25:42.595Z,12.60
2023-08-28T23:30:45.649Z,12.50
2023-08-28T23:35:47.490Z,12.60
2023-08-28T23:40:49.230Z,12.60
2023-08-28T23:45:52.715Z,12.60
2023-08-28T23:50:54.851Z,12.50
2023-08-28T23:55:56.753Z,12.30
